createdAt,value
2023-01-13T00:01:16.624Z,18.74
2023-01-13T00:03:44.457Z,18.74
2023-01-13T00:06:19.791Z,18.74
2023-01-13T00:08:51.606Z,18.74
2023-01-13T00:11:19.918Z,18.73
2023-01-13T00:13:47.364Z,18.73
2023-01-13T00:16:18.428Z,18.73
2023-01-13T00:18:46.969Z,18.72
2023-01-13T00:21:16.985Z,18.72
2023-01-13T00:23:44.831Z,18.71
2023-01-13T00:26:15.580Z,18.71
2023-01-13T00:28:42.719Z,18.71
2023-01-13T00:31:12.779Z,18.71
2023-01-13T00:33:40.527Z,18.70
2023-01-13T00:36:09.526Z,18.70
2023-01-13T00:38:38.938Z,18.70
2023-01-13T00:41:09.083Z,18.70
2023-01-13T00:43:37.639Z,18.69
2023-01-13T00:46:07.162Z,18.69
2023-01-13T00:48:35.009Z,18.69
2023-01-13T00:51:04.110Z,18.69
2023-01-13T00:53:35.760Z,18.68
2023-01-13T00:56:07.942Z,18.67
2023-01-13T00:58:36.232Z,18.66
2023-01-13T01:01:05.845Z,18.66
2023-01-13T01:03:33.744Z,18.66
2023-01-13T01:06:22.218Z,18.66
2023-01-13T01:08:49.788Z,18.66
2023-01-13T01:11:23.389Z,18.66
2023-01-13T01:13:52.729Z,18.65
2023-01-13T01:16:22.865Z,18.65
2023-01-13T01:18:51.731Z,18.65
2023-01-13T01:21:19.699Z,18.66
2023-01-13T01:23:47.237Z,18.65
2023-01-13T01:26:17.129Z,18.65
2023-01-13T01:28:45.631Z,18.64
2023-01-13T01:31:20.394Z,18.65
2023-01-13T01:33:48.557Z,18.65
2023-01-13T01:36:18.181Z,18.64
2023-01-13T01:38:45.918Z,18.64
2023-01-13T01:41:17.022Z,18.63
2023-01-13T01:44:04.084Z,18.63
2023-01-13T01:46:33.881Z,18.63
2023-01-13T01:49:07.653Z,18.63
2023-01-13T01:51:50.209Z,18.62
2023-01-13T01:54:27.654Z,18.62
2023-01-13T01:56:55.528Z,18.62
2023-01-13T01:59:28.576Z,18.62
2023-01-13T02:01:56.274Z,18.62
2023-01-13T02:04:28.566Z,18.62
2023-01-13T02:06:57.139Z,18.62
2023-01-13T02:09:26.420Z,18.61
2023-01-13T02:12:11.959Z,18.61
2023-01-13T02:14:40.158Z,18.61
2023-01-13T02:17:45.718Z,18.62
2023-01-13T02:20:38.882Z,18.61
2023-01-13T02:23:57.935Z,18.61
2023-01-13T02:26:55.767Z,18.61
2023-01-13T02:30:09.432Z,18.60
2023-01-13T02:32:50.074Z,18.60
2023-01-13T02:35:28.730Z,18.60
2023-01-13T02:37:58.033Z,18.59
2023-01-13T02:40:37.195Z,18.60
2023-01-13T02:43:22.577Z,18.59
2023-01-13T02:46:19.888Z,18.58
2023-01-13T02:48:50.976Z,18.59
2023-01-13T02:51:21.518Z,18.59
2023-01-13T02:53:52.647Z,18.59
2023-01-13T02:56:21.398Z,18.58
2023-01-13T02:58:49.612Z,18.58
2023-01-13T03:01:17.396Z,18.58
2023-01-13T03:03:44.740Z,18.58
2023-01-13T03:06:30.452Z,18.57
2023-01-13T03:09:30.129Z,18.57
2023-01-13T03:12:15.855Z,18.57
2023-01-13T03:14:48.279Z,18.57
2023-01-13T03:17:18.656Z,18.58
2023-01-13T03:20:04.710Z,18.58
2023-01-13T03:22:38.400Z,18.58
2023-01-13T03:25:40.793Z,18.58
2023-01-13T03:28:15.739Z,18.58
2023-01-13T03:30:59.952Z,18.57
2023-01-13T03:33:37.661Z,18.58
2023-01-13T03:36:09.355Z,18.58
2023-01-13T03:38:50.982Z,18.57
2023-01-13T03:41:34.161Z,18.57
2023-01-13T03:44:24.830Z,18.57
2023-01-13T03:47:01.541Z,18.57
2023-01-13T03:49:37.157Z,18.57
2023-01-13T03:52:09.929Z,18.56
2023-01-13T03:54:46.830Z,18.57
2023-01-13T03:57:17.404Z,18.56
2023-01-13T03:59:49.047Z,18.56
2023-01-13T04:02:43.968Z,18.56
2023-01-13T04:05:12.036Z,18.56
2023-01-13T04:07:53.097Z,18.56
2023-01-13T04:10:36.906Z,18.56
2023-01-13T04:13:14.710Z,18.55
2023-01-13T04:15:44.338Z,18.55
2023-01-13T04:18:31.299Z,18.55
2023-01-13T04:21:01.338Z,18.56
2023-01-13T04:23:29.220Z,18.56
2023-01-13T04:25:56.926Z,18.55
2023-01-13T04:28:24.193Z,18.55
2023-01-13T04:30:51.457Z,18.55
2023-01-13T04:33:19.745Z,18.55
2023-01-13T04:35:47.674Z,18.55
2023-01-13T04:38:17.262Z,18.55
2023-01-13T04:40:44.768Z,18.55
2023-01-13T04:43:12.670Z,18.55
2023-01-13T04:45:39.596Z,18.54
2023-01-13T04:48:06.982Z,18.54
2023-01-13T04:50:34.224Z,18.54
2023-01-13T04:53:01.486Z,18.54
2023-01-13T04:55:28.933Z,18.54
2023-01-13T04:57:56.009Z,18.54
2023-01-13T05:00:23.974Z,18.55
2023-01-13T05:02:52.415Z,18.55
2023-01-13T05:05:19.439Z,18.54
2023-01-13T05:07:46.609Z,18.54
2023-01-13T05:10:13.865Z,18.54
2023-01-13T05:13:00.467Z,18.54
2023-01-13T05:15:46.114Z,18.53
2023-01-13T05:18:13.401Z,18.54
2023-01-13T05:20:40.624Z,18.54
2023-01-13T05:23:26.815Z,18.54
2023-01-13T05:25:53.938Z,18.53
2023-01-13T05:28:21.188Z,18.54
2023-01-13T05:30:52.759Z,18.53
2023-01-13T05:33:21.021Z,18.53
2023-01-13T05:35:48.974Z,18.53
2023-01-13T05:38:17.387Z,18.52
2023-01-13T05:41:03.295Z,18.52
2023-01-13T05:43:30.792Z,18.53
2023-01-13T05:46:02.800Z,18.52
2023-01-13T05:48:35.657Z,18.52
2023-01-13T05:51:04.978Z,18.52
2023-01-13T05:53:32.390Z,18.52
2023-01-13T05:56:00.170Z,18.52
2023-01-13T05:58:28.517Z,18.52
2023-01-13T06:01:07.455Z,18.52
2023-01-13T06:03:34.790Z,18.52
2023-01-13T06:06:04.325Z,18.52
2023-01-13T06:08:31.952Z,18.52
2023-01-13T06:10:59.036Z,18.52
2023-01-13T06:13:26.022Z,18.52
2023-01-13T06:15:59.466Z,18.52
2023-01-13T06:18:27.195Z,18.52
2023-01-13T06:20:54.268Z,18.52
2023-01-13T06:23:21.414Z,18.52
2023-01-13T06:26:14.583Z,18.51
2023-01-13T06:28:41.680Z,18.52
2023-01-13T06:31:10.627Z,18.51
2023-01-13T06:33:42.835Z,18.52
2023-01-13T06:36:22.421Z,18.52
2023-01-13T06:38:53.732Z,18.52
2023-01-13T06:41:41.326Z,18.51
2023-01-13T06:44:14.606Z,18.51
2023-01-13T06:46:41.874Z,18.51
2023-01-13T06:49:09.050Z,18.51
2023-01-13T06:51:36.068Z,18.50
2023-01-13T06:54:03.215Z,18.50
2023-01-13T06:56:30.138Z,18.51
2023-01-13T06:58:57.047Z,18.50
2023-01-13T07:01:24.128Z,18.50
2023-01-13T07:03:51.802Z,18.50
2023-01-13T07:06:18.886Z,18.50
2023-01-13T07:08:45.906Z,18.51
2023-01-13T07:11:12.834Z,18.51
2023-01-13T07:13:58.321Z,18.52
2023-01-13T07:16:28.284Z,18.53
2023-01-13T07:18:58.159Z,18.52
2023-01-13T07:21:25.126Z,18.51
2023-01-13T07:23:52.142Z,18.52
2023-01-13T07:26:19.114Z,18.54
2023-01-13T07:28:46.059Z,18.55
2023-01-13T07:31:17.167Z,18.56
2023-01-13T07:33:44.275Z,18.57
2023-01-13T07:36:11.588Z,18.58
2023-01-13T07:38:40.057Z,18.60
2023-01-13T07:41:42.898Z,18.61
2023-01-13T07:44:10.958Z,18.63
2023-01-13T07:46:39.045Z,18.64
2023-01-13T07:49:06.577Z,18.65
2023-01-13T07:51:39.786Z,18.66
2023-01-13T07:54:07.397Z,18.67
2023-01-13T07:56:34.515Z,18.68
2023-01-13T07:59:01.852Z,18.69
2023-01-13T08:01:29.249Z,18.69
2023-01-13T08:03:56.569Z,18.70
2023-01-13T08:06:23.705Z,18.70
2023-01-13T08:08:51.554Z,18.71
2023-01-13T08:11:22.645Z,18.72
2023-01-13T08:13:50.528Z,18.72
2023-01-13T08:16:18.100Z,18.73
2023-01-13T08:18:45.344Z,18.74
2023-01-13T08:21:14.354Z,18.74
2023-01-13T08:23:43.790Z,18.74
2023-01-13T08:26:14.350Z,18.74
2023-01-13T08:28:41.909Z,18.75
2023-01-13T08:31:14.465Z,18.76
2023-01-13T08:33:41.893Z,18.76
2023-01-13T08:36:12.507Z,18.76
2023-01-13T08:38:40.413Z,18.76
2023-01-13T08:41:37.275Z,18.77
2023-01-13T08:44:05.308Z,18.77
2023-01-13T08:46:32.554Z,18.78
2023-01-13T08:48:59.501Z,18.78
2023-01-13T08:51:26.508Z,18.79
2023-01-13T08:53:53.405Z,18.79
2023-01-13T08:56:20.472Z,18.79
2023-01-13T08:58:47.564Z,18.79
2023-01-13T09:01:21.706Z,18.80
2023-01-13T09:03:48.829Z,18.81
2023-01-13T09:06:15.806Z,18.81
2023-01-13T09:08:42.900Z,18.80
2023-01-13T09:11:44.828Z,18.81
2023-01-13T09:14:11.906Z,18.81
2023-01-13T09:16:38.835Z,18.82
2023-01-13T09:19:05.903Z,18.82
2023-01-13T09:21:33.435Z,18.82
2023-01-13T09:24:00.503Z,18.83
2023-01-13T09:26:27.439Z,18.83
2023-01-13T09:28:54.477Z,18.84
2023-01-13T09:31:21.438Z,18.85
2023-01-13T09:34:07.302Z,18.85
2023-01-13T09:36:34.391Z,18.85
2023-01-13T09:39:01.280Z,18.86
2023-01-13T09:41:50.022Z,18.87
2023-01-13T09:44:36.577Z,18.88
2023-01-13T09:47:07.323Z,18.87
2023-01-13T09:49:39.354Z,18.88
2023-01-13T09:52:25.773Z,18.89
2023-01-13T09:55:10.139Z,18.89
2023-01-13T09:57:40.059Z,18.89
2023-01-13T10:00:14.118Z,18.89
2023-01-13T10:03:09.400Z,18.90
2023-01-13T10:05:44.409Z,18.90
2023-01-13T10:08:16.671Z,18.90
2023-01-13T10:10:48.802Z,18.90
2023-01-13T10:13:38.090Z,18.90
2023-01-13T10:16:11.185Z,18.91
2023-01-13T10:19:06.158Z,18.91
2023-01-13T10:21:42.333Z,18.92
2023-01-13T10:24:36.862Z,18.92
2023-01-13T10:27:12.817Z,18.92
2023-01-13T10:29:39.878Z,18.93
2023-01-13T10:32:06.882Z,18.93
2023-01-13T10:34:58.180Z,18.94
2023-01-13T10:37:28.450Z,18.94
2023-01-13T10:39:57.660Z,18.93
2023-01-13T10:42:25.778Z,18.93
2023-01-13T10:44:52.867Z,18.94
2023-01-13T10:47:29.439Z,18.94
2023-01-13T10:50:01.531Z,18.94
2023-01-13T10:52:36.989Z,18.94
2023-01-13T10:55:23.986Z,18.95
2023-01-13T10:57:50.982Z,18.94
2023-01-13T11:00:33.083Z,18.95
2023-01-13T11:03:15.790Z,18.95
2023-01-13T11:05:51.727Z,18.95
2023-01-13T11:08:22.035Z,18.95
2023-01-13T11:10:52.131Z,18.96
2023-01-13T11:13:57.885Z,18.96
2023-01-13T11:16:26.357Z,18.97
2023-01-13T11:19:13.289Z,18.97
2023-01-13T11:21:55.444Z,18.97
2023-01-13T11:24:38.235Z,18.98
2023-01-13T11:27:13.491Z,18.98
2023-01-13T11:30:10.163Z,18.98
2023-01-13T11:32:55.305Z,18.97
2023-01-13T11:35:22.967Z,18.96
2023-01-13T11:38:02.029Z,18.97
2023-01-13T11:40:41.353Z,18.97
2023-01-13T11:43:20.703Z,18.97
2023-01-13T11:46:00.232Z,18.97
2023-01-13T11:48:31.703Z,18.97
2023-01-13T11:51:13.969Z,18.97
2023-01-13T11:54:18.352Z,18.98
2023-01-13T11:57:03.995Z,18.98
2023-01-13T11:59:54.007Z,18.99
2023-01-13T12:02:34.046Z,18.98
2023-01-13T12:05:26.186Z,18.99
2023-01-13T12:08:16.859Z,19.01
2023-01-13T12:10:46.952Z,19.02
2023-01-13T12:13:58.250Z,19.03
2023-01-13T12:16:30.789Z,19.02
2023-01-13T12:19:22.017Z,19.04
2023-01-13T12:22:13.677Z,19.04
2023-01-13T12:24:52.855Z,19.05
2023-01-13T12:27:58.434Z,19.04
2023-01-13T12:30:46.014Z,19.03
2023-01-13T12:33:20.946Z,19.02
2023-01-13T12:36:02.618Z,19.03
2023-01-13T12:38:49.859Z,19.04
2023-01-13T12:41:24.831Z,19.04
2023-01-13T12:44:12.030Z,19.03
2023-01-13T12:46:56.049Z,19.04
2023-01-13T12:49:33.030Z,19.03
2023-01-13T12:52:11.731Z,19.04
2023-01-13T12:54:41.693Z,19.04
2023-01-13T12:57:27.608Z,19.04
2023-01-13T13:00:03.872Z,19.03
2023-01-13T13:02:39.829Z,19.04
2023-01-13T13:05:36.392Z,19.04
2023-01-13T13:08:40.985Z,19.04
2023-01-13T13:11:32.827Z,19.06
2023-01-13T13:14:11.671Z,19.07
2023-01-13T13:16:47.188Z,19.08
2023-01-13T13:19:20.305Z,19.09
2023-01-13T13:22:12.266Z,19.09
2023-01-13T13:24:43.420Z,19.10
2023-01-13T13:27:24.995Z,19.08
2023-01-13T13:30:12.960Z,19.07
2023-01-13T13:32:53.850Z,19.06
2023-01-13T13:35:58.995Z,19.06
2023-01-13T13:39:00.757Z,19.05
2023-01-13T13:41:48.482Z,19.02
2023-01-13T13:44:39.162Z,19.01
2023-01-13T13:47:07.526Z,19.02
2023-01-13T13:49:36.155Z,19.02
2023-01-13T13:52:15.326Z,19.04
2023-01-13T13:54:47.921Z,19.05
2023-01-13T13:57:33.613Z,19.05
2023-01-13T14:00:01.761Z,19.06
2023-01-13T14:02:39.882Z,19.07
2023-01-13T14:05:08.342Z,19.07
2023-01-13T14:07:46.868Z,19.07
2023-01-13T14:10:27.870Z,19.08
2023-01-13T14:12:54.806Z,19.09
2023-01-13T14:15:35.053Z,19.09
2023-01-13T14:18:04.674Z,19.08
2023-01-13T14:20:32.371Z,19.08
2023-01-13T14:23:01.842Z,19.09
2023-01-13T14:25:36.832Z,19.09
2023-01-13T14:28:20.974Z,19.09
2023-01-13T14:30:50.223Z,19.09
2023-01-13T14:33:39.116Z,19.09
2023-01-13T14:36:19.229Z,19.09
2023-01-13T14:38:48.929Z,19.09
2023-01-13T14:41:24.089Z,19.10
2023-01-13T14:43:54.333Z,19.09
2023-01-13T14:46:23.385Z,19.08
2023-01-13T14:48:59.386Z,19.07
2023-01-13T14:51:29.191Z,19.07
2023-01-13T14:53:57.500Z,19.07
2023-01-13T14:56:44.500Z,19.06
2023-01-13T14:59:34.400Z,19.07
2023-01-13T15:02:22.767Z,19.07
2023-01-13T15:04:54.188Z,19.05
2023-01-13T15:07:29.657Z,19.04
2023-01-13T15:10:02.823Z,19.03
2023-01-13T15:12:36.027Z,19.01
2023-01-13T15:15:25.471Z,19.00
2023-01-13T15:17:53.127Z,19.00
2023-01-13T15:20:22.623Z,19.00
2023-01-13T15:22:51.661Z,19.00
2023-01-13T15:25:20.296Z,19.00
2023-01-13T15:27:52.281Z,19.00
2023-01-13T15:30:26.029Z,19.01
2023-01-13T15:32:55.329Z,19.00
2023-01-13T15:35:24.659Z,19.01
2023-01-13T15:37:52.675Z,19.02
2023-01-13T15:40:22.215Z,19.03
2023-01-13T15:43:07.935Z,19.03
2023-01-13T15:45:56.465Z,19.03
2023-01-13T15:48:25.460Z,19.02
2023-01-13T15:50:52.452Z,19.02
2023-01-13T15:53:20.004Z,19.02
2023-01-13T15:55:52.348Z,19.03
2023-01-13T15:58:24.310Z,19.02
2023-01-13T16:00:51.379Z,19.03
2023-01-13T16:03:18.507Z,19.03
2023-01-13T16:05:45.686Z,19.02
2023-01-13T16:08:20.622Z,19.01
2023-01-13T16:10:48.317Z,19.01
2023-01-13T16:13:16.804Z,19.01
2023-01-13T16:15:49.375Z,19.01
2023-01-13T16:18:24.433Z,19.01
2023-01-13T16:20:53.699Z,19.01
2023-01-13T16:23:21.814Z,19.01
2023-01-13T16:25:49.793Z,19.01
2023-01-13T16:28:22.049Z,19.01
2023-01-13T16:30:49.065Z,19.01
2023-01-13T16:33:16.081Z,19.00
2023-01-13T16:36:10.225Z,19.01
2023-01-13T16:38:30.892Z,18.99
2023-01-13T16:40:57.884Z,19.00
2023-01-13T16:43:25.006Z,19.00
2023-01-13T16:45:51.964Z,19.00
2023-01-13T16:48:20.596Z,19.00
2023-01-13T16:50:47.745Z,19.00
2023-01-13T16:53:15.215Z,19.01
2023-01-13T16:55:43.660Z,19.01
2023-01-13T16:58:18.030Z,19.01
2023-01-13T17:00:48.344Z,18.99
2023-01-13T17:03:16.626Z,19.00
2023-01-13T17:05:47.149Z,18.99
2023-01-13T17:08:18.000Z,18.98
2023-01-13T17:10:46.268Z,18.97
2023-01-13T17:13:16.955Z,18.97
2023-01-13T17:15:46.365Z,18.97
2023-01-13T17:18:13.850Z,18.97
2023-01-13T17:20:41.429Z,18.96
2023-01-13T17:23:08.592Z,18.95
2023-01-13T17:25:38.319Z,18.95
2023-01-13T17:28:05.200Z,18.94
2023-01-13T17:30:32.215Z,18.95
2023-01-13T17:32:59.204Z,18.96
2023-01-13T17:35:29.254Z,18.97
2023-01-13T17:37:56.499Z,18.97
2023-01-13T17:40:23.778Z,18.97
2023-01-13T17:42:51.036Z,18.97
2023-01-13T17:45:18.172Z,18.96
2023-01-13T17:47:47.397Z,18.96
2023-01-13T17:50:15.031Z,18.96
2023-01-13T17:52:42.357Z,18.96
2023-01-13T17:55:09.558Z,18.95
2023-01-13T17:57:36.910Z,18.95
2023-01-13T18:00:05.783Z,18.97
2023-01-13T18:02:39.420Z,18.97
2023-01-13T18:05:06.631Z,18.96
2023-01-13T18:07:37.214Z,18.97
2023-01-13T18:10:04.561Z,18.97
2023-01-13T18:12:31.624Z,18.98
2023-01-13T18:14:58.646Z,18.98
2023-01-13T18:17:25.654Z,18.98
2023-01-13T18:20:11.030Z,18.99
2023-01-13T18:22:56.817Z,18.99
2023-01-13T18:25:42.310Z,18.99
2023-01-13T18:28:09.347Z,18.98
2023-01-13T18:30:37.065Z,18.96
2023-01-13T18:33:04.253Z,18.95
2023-01-13T18:35:31.615Z,18.93
2023-01-13T18:37:58.653Z,18.92
2023-01-13T18:40:25.906Z,18.90
2023-01-13T18:42:54.982Z,18.89
2023-01-13T18:45:29.106Z,18.87
2023-01-13T18:47:58.563Z,18.87
2023-01-13T18:50:27.720Z,18.86
2023-01-13T18:52:56.422Z,18.87
2023-01-13T18:55:23.411Z,18.88
2023-01-13T18:57:51.424Z,18.90
2023-01-13T19:00:20.566Z,18.90
2023-01-13T19:02:48.645Z,18.91
2023-01-13T19:05:15.555Z,18.92
2023-01-13T19:07:46.512Z,18.93
2023-01-13T19:10:13.688Z,18.93
2023-01-13T19:12:40.599Z,18.94
2023-01-13T19:15:08.233Z,18.94
2023-01-13T19:17:36.663Z,18.94
2023-01-13T19:20:05.263Z,18.95
2023-01-13T19:22:34.495Z,18.96
2023-01-13T19:25:03.167Z,18.96
2023-01-13T19:27:30.796Z,18.96
2023-01-13T19:30:00.531Z,18.97
2023-01-13T19:32:28.878Z,18.97
2023-01-13T19:34:59.428Z,18.97
2023-01-13T19:37:34.369Z,18.98
2023-01-13T19:40:02.471Z,18.98
2023-01-13T19:42:48.537Z,18.98
2023-01-13T19:45:29.087Z,18.98
2023-01-13T19:47:57.290Z,18.99
2023-01-13T19:50:25.286Z,18.99
2023-01-13T19:52:52.343Z,18.99
2023-01-13T19:55:20.084Z,18.98
2023-01-13T19:57:47.277Z,18.98
2023-01-13T20:00:18.971Z,18.99
2023-01-13T20:02:49.846Z,18.99
2023-01-13T20:05:21.492Z,19.00
2023-01-13T20:07:50.832Z,19.00
2023-01-13T20:10:20.044Z,19.00
2023-01-13T20:12:47.490Z,19.00
2023-01-13T20:15:14.719Z,19.00
2023-01-13T20:17:41.933Z,19.01
2023-01-13T20:20:10.779Z,19.02
2023-01-13T20:22:41.140Z,19.02
2023-01-13T20:25:09.070Z,19.03
2023-01-13T20:27:36.737Z,19.02
2023-01-13T20:30:05.626Z,19.03
2023-01-13T20:32:32.643Z,19.03
2023-01-13T20:34:59.668Z,19.03
2023-01-13T20:37:27.020Z,19.02
2023-01-13T20:39:55.549Z,19.02
2023-01-13T20:42:41.441Z,19.01
2023-01-13T20:45:08.932Z,19.02
2023-01-13T20:47:35.935Z,19.03
2023-01-13T20:50:02.951Z,19.03
2023-01-13T20:52:30.059Z,19.05
2023-01-13T20:54:57.129Z,19.05
2023-01-13T20:57:24.169Z,19.06
2023-01-13T20:59:51.430Z,19.06
2023-01-13T21:02:19.398Z,19.04
2023-01-13T21:04:46.359Z,19.03
2023-01-13T21:07:13.425Z,19.02
2023-01-13T21:09:40.457Z,19.02
2023-01-13T21:12:26.599Z,19.03
2023-01-13T21:15:11.828Z,19.03
2023-01-13T21:17:57.594Z,19.04
2023-01-13T21:20:24.622Z,19.05
2023-01-13T21:22:51.774Z,19.05
2023-01-13T21:25:19.412Z,19.06
2023-01-13T21:27:46.464Z,19.07
2023-01-13T21:30:15.672Z,19.08
2023-01-13T21:32:44.276Z,19.09
2023-01-13T21:35:12.749Z,19.09
2023-01-13T21:37:41.624Z,19.09
2023-01-13T21:40:10.424Z,19.08
2023-01-13T21:42:55.973Z,19.08
2023-01-13T21:45:41.705Z,19.08
2023-01-13T21:48:08.694Z,19.08
2023-01-13T21:50:38.047Z,19.07
2023-01-13T21:53:05.208Z,19.07
2023-01-13T21:55:33.044Z,19.06
2023-01-13T21:58:13.641Z,19.07
2023-01-13T22:00:42.916Z,19.07
2023-01-13T22:03:11.525Z,19.07
2023-01-13T22:05:41.526Z,19.06
2023-01-13T22:08:12.360Z,19.05
2023-01-13T22:10:58.114Z,19.04
2023-01-13T22:13:45.385Z,19.02
2023-01-13T22:16:13.473Z,18.99
2023-01-13T22:18:40.700Z,18.97
2023-01-13T22:21:07.988Z,18.94
2023-01-13T22:23:34.998Z,18.92
2023-01-13T22:26:05.918Z,18.90
2023-01-13T22:28:40.184Z,18.86
2023-01-13T22:31:12.388Z,18.85
2023-01-13T22:33:40.230Z,18.84
2023-01-13T22:36:08.180Z,18.83
2023-01-13T22:38:35.284Z,18.83
2023-01-13T22:41:04.931Z,18.83
2023-01-13T22:43:32.651Z,18.84
2023-01-13T22:46:02.103Z,18.84
2023-01-13T22:48:30.249Z,18.83
2023-01-13T22:50:57.146Z,18.83
2023-01-13T22:53:24.137Z,18.82
2023-01-13T22:55:58.656Z,18.82
2023-01-13T22:58:26.461Z,18.81
2023-01-13T23:00:53.664Z,18.80
2023-01-13T23:03:20.788Z,18.78
2023-01-13T23:05:48.893Z,18.77
2023-01-13T23:08:15.882Z,18.76
2023-01-13T23:10:42.877Z,18.75
2023-01-13T23:13:10.582Z,18.75
2023-01-13T23:15:37.818Z,18.75
2023-01-13T23:18:04.709Z,18.76
2023-01-13T23:20:31.720Z,18.77
2023-01-13T23:22:59.653Z,18.77
2023-01-13T23:25:27.397Z,18.79
2023-01-13T23:27:56.727Z,18.80
2023-01-13T23:30:24.171Z,18.80
2023-01-13T23:32:51.251Z,18.81
2023-01-13T23:35:18.682Z,18.82
2023-01-13T23:37:45.712Z,18.82
2023-01-13T23:40:13.631Z,18.81
2023-01-13T23:42:40.611Z,18.82
2023-01-13T23:45:08.340Z,18.81
2023-01-13T23:47:39.530Z,18.81
2023-01-13T23:50:08.829Z,18.81
2023-01-13T23:52:35.899Z,18.82
2023-01-13T23:55:02.876Z,18.82
2023-01-13T23:57:29.837Z,18.82
2023-01-13T23:59:57.019Z,18.82
